^^
Station Historical Data
Daily Summary for November 11, 2017 Units:  English    Metric   Both
« Previous Day
Next Day »
Daily Weekly Monthly Yearly Custom
  High: Low: Average:
Temperature: 35.7 °F 22.0 °F 27.4 °F
Dew Point: 15.4 °F 8.3 °F 12.3 °F
Humidity: 71% 32% 54%
Wind Speed: 5.0mph 0.0mph 0.7mph
Wind Gust: 13.0mph - -
Wind- - SW
Pressure: 30.60 in 30.49 in -
Precipitation: 0.00 in    
Historical Graphs
 
 
Tabular Data for November 11, 2017
Time Temperature Dew Point Pressure Wind Wind Speed Wind Gust Humidity Rainfall Rate (Hourly) Conditions
00:00 23.0 °F 11.6 °F 30.51 in SSW 1.0 mph 6.0 mph 61% 0.00 in CLR
00:10 22.8 °F 11.7 °F 30.51 in SSE 1.0 mph 5.0 mph 62% 0.00 in CLR
00:20 22.6 °F 11.5 °F 30.51 in SW 2.0 mph 8.0 mph 62% 0.00 in CLR
00:30 22.6 °F 11.9 °F 30.51 in Calm   5.0 mph 63% 0.00 in CLR
00:40 22.4 °F 12.1 °F 30.50 in Calm   3.0 mph 64% 0.00 in CLR
00:50 22.4 °F 12.4 °F 30.50 in Calm   4.0 mph 65% 0.00 in CLR
01:00 22.3 °F 12.7 °F 30.51 in NW 1.0 mph 7.0 mph 66% 0.00 in CLR
01:09 22.4 °F 12.8 °F 30.50 in Calm   6.0 mph 66% 0.00 in CLR
01:19 22.4 °F 13.1 °F 30.50 in Calm   3.0 mph 67% 0.00 in CLR
01:30 22.5 °F 13.5 °F 30.50 in ENE 1.0 mph 7.0 mph 68% 0.00 in CLR
01:39 22.5 °F 13.5 °F 30.50 in Calm   7.0 mph 68% 0.00 in CLR
01:49 22.5 °F 13.5 °F 30.51 in East 1.0 mph 6.0 mph 68% 0.00 in CLR
02:00 22.5 °F 14.2 °F 30.50 in WSW 1.0 mph 5.0 mph 70% 0.00 in CLR
02:10 22.5 °F 13.9 °F 30.50 in NW 2.0 mph 8.0 mph 69% 0.00 in CLR
02:20 22.6 °F 14.3 °F 30.49 in Calm   10.0 mph 70% 0.00 in CLR
02:29 22.7 °F 14.7 °F 30.50 in East 1.0 mph 7.0 mph 71% 0.00 in CLR
02:40 22.7 °F 14.4 °F 30.51 in NE 2.0 mph 7.0 mph 70% 0.00 in CLR
02:49 22.6 °F 14.3 °F 30.50 in Calm   10.0 mph 70% 0.00 in CLR
02:59 22.5 °F 14.2 °F 30.50 in Calm   9.0 mph 70% 0.00 in CLR
03:10 22.4 °F 14.1 °F 30.51 in North 2.0 mph 9.0 mph 70% 0.00 in CLR
03:19 22.3 °F 13.7 °F 30.51 in Calm   3.0 mph 69% 0.00 in CLR
03:29 22.3 °F 14.0 °F 30.51 in SW 1.0 mph 4.0 mph 70% 0.00 in CLR
03:40 22.3 °F 14.0 °F 30.52 in NW 1.0 mph 5.0 mph 70% 0.00 in CLR
03:50 22.4 °F 14.1 °F 30.53 in NNE 2.0 mph 9.0 mph 70% 0.00 in CLR
04:00 22.5 °F 14.2 °F 30.53 in NNW 3.0 mph 8.0 mph 70% 0.00 in CLR
04:10 22.5 °F 14.2 °F 30.53 in Calm   5.0 mph 70% 0.00 in CLR
04:20 22.2 °F 14.2 °F 30.54 in Calm   6.0 mph 71% 0.00 in CLR
04:30 22.2 °F 14.2 °F 30.54 in Calm   8.0 mph 71% 0.00 in CLR
04:39 22.0 °F 14.0 °F 30.54 in Calm   3.0 mph 71% 0.00 in CLR
04:50 22.0 °F 14.0 °F 30.54 in Calm   5.0 mph 71% 0.00 in CLR
04:59 22.1 °F 14.1 °F 30.54 in Calm   6.0 mph 71% 0.00 in CLR
05:10 22.4 °F 14.4 °F 30.54 in North 2.0 mph 6.0 mph 71% 0.00 in CLR
05:20 22.5 °F 14.5 °F 30.54 in Calm   8.0 mph 71% 0.00 in CLR
05:29 22.7 °F 14.4 °F 30.53 in Calm   9.0 mph 70% 0.00 in CLR
05:40 22.8 °F 14.8 °F 30.53 in ENE 1.0 mph 8.0 mph 71% 0.00 in CLR
05:49 22.7 °F 14.4 °F 30.52 in North 1.0 mph 8.0 mph 70% 0.00 in CLR
05:59 22.5 °F 14.5 °F 30.53 in Calm   7.0 mph 71% 0.00 in CLR
06:09 22.4 °F 14.4 °F 30.54 in SSE 2.0 mph 7.0 mph 71% 0.00 in CLR
06:20 22.3 °F 14.3 °F 30.54 in Calm   3.0 mph 71% 0.00 in CLR
06:29 22.3 °F 14.0 °F 30.55 in NE 1.0 mph 3.0 mph 70% 0.00 in CLR
06:40 22.4 °F 14.1 °F 30.55 in Calm   4.0 mph 70% 0.00 in CLR
06:49 22.6 °F 14.0 °F 30.55 in Calm   3.0 mph 69% 0.00 in CLR
06:59 22.7 °F 14.1 °F 30.56 in Calm   3.0 mph 69% 0.00 in CLR
07:09 22.8 °F 13.8 °F 30.55 in SSE 1.0 mph 5.0 mph 68% 0.00 in CLR
07:20 22.9 °F 13.9 °F 30.56 in NNW 2.0 mph 4.0 mph 68% 0.00 in CLR
07:30 23.2 °F 14.5 °F 30.57 in Calm   2.0 mph 69% 0.00 in CLR
07:40 23.5 °F 14.8 °F 30.57 in Calm   6.0 mph 69% 0.00 in CLR
07:49 23.8 °F 14.8 °F 30.57 in Calm   4.0 mph 68% 0.00 in CLR
07:59 24.1 °F 14.4 °F 30.58 in Calm   5.0 mph 66% 0.00 in CLR
08:10 24.3 °F 13.1 °F 30.58 in NNW 1.0 mph 7.0 mph 62% 0.00 in CLR
08:20 24.2 °F 11.5 °F 30.58 in North 2.0 mph 10.0 mph 58% 0.00 in CLR
08:29 24.3 °F 11.3 °F 30.59 in North 1.0 mph 8.0 mph 57% 0.00 in CLR
08:39 24.4 °F 12.1 °F 30.59 in North 1.0 mph 7.0 mph 59% 0.00 in CLR
08:50 24.7 °F 12.0 °F 30.59 in North 2.0 mph 5.0 mph 58% 0.00 in CLR
08:59 24.9 °F 11.8 °F 30.59 in NNE 1.0 mph 8.0 mph 57% 0.00 in CLR
09:09 25.6 °F 11.6 °F 30.59 in Calm   8.0 mph 55% 0.00 in CLR
09:20 26.1 °F 10.4 °F 30.59 in NNW 2.0 mph 9.0 mph 51% 0.00 in CLR
09:30 26.3 °F 9.2 °F 30.59 in NW 1.0 mph 10.0 mph 48% 0.00 in CLR
09:50 27.3 °F 10.2 °F 30.59 in NW 2.0 mph 9.0 mph 48% 0.00 in CLR
09:59 27.6 °F 10.0 °F 30.59 in NNW 5.0 mph 9.0 mph 47% 0.00 in CLR
10:09 27.5 °F 9.9 °F 30.60 in NNE 2.0 mph 10.0 mph 47% 0.00 in CLR
10:20 28.3 °F 11.1 °F 30.60 in NNW 2.0 mph 6.0 mph 48% 0.00 in CLR
10:30 28.9 °F 11.2 °F 30.60 in NNW 2.0 mph 12.0 mph 47% 0.00 in CLR
10:40 29.2 °F 11.9 °F 30.60 in North 2.0 mph 7.0 mph 48% 0.00 in CLR
10:49 29.7 °F 11.9 °F 30.59 in NNE 1.0 mph 7.0 mph 47% 0.00 in CLR
10:59 29.8 °F 12.0 °F 30.60 in North 1.0 mph 9.0 mph 47% 0.00 in CLR
11:10 29.6 °F 11.8 °F 30.59 in WNW 2.0 mph 12.0 mph 47% 0.00 in CLR
11:20 29.8 °F 11.5 °F 30.59 in NW 1.0 mph 13.0 mph 46% 0.00 in CLR
11:30 30.2 °F 11.9 °F 30.59 in Calm   8.0 mph 46% 0.00 in CLR
11:39 30.9 °F 12.0 °F 30.58 in West 2.0 mph 9.0 mph 45% 0.00 in CLR
11:49 30.9 °F 12.5 °F 30.58 in WNW 2.0 mph 10.0 mph 46% 0.00 in CLR
11:59 31.0 °F 12.2 °F 30.57 in WNW 2.0 mph 8.0 mph 45% 0.00 in CLR
12:10 31.1 °F 13.2 °F 30.57 in North 3.0 mph 9.0 mph 47% 0.00 in CLR
12:19 32.0 °F 14.0 °F 30.57 in ESE 1.0 mph 5.0 mph 47% 0.00 in CLR
12:30 31.9 °F 14.4 °F 30.57 in NW 3.0 mph 12.0 mph 48% 0.00 in CLR
12:39 31.9 °F 13.9 °F 30.56 in Calm   12.0 mph 47% 0.00 in CLR
12:49 32.7 °F 13.7 °F 30.56 in NW 2.0 mph 12.0 mph 45% 0.00 in CLR
12:59 32.8 °F 14.3 °F 30.55 in NNE 2.0 mph 7.0 mph 46% 0.00 in CLR
13:10 33.3 °F 14.7 °F 30.55 in North 2.0 mph 8.0 mph 46% 0.00 in CLR
13:20 33.1 °F 14.0 °F 30.54 in NNW 2.0 mph 9.0 mph 45% 0.00 in CLR
13:30 33.5 °F 13.9 °F 30.53 in NW 3.0 mph 9.0 mph 44% 0.00 in CLR
13:39 33.8 °F 14.2 °F 30.53 in Calm   8.0 mph 44% 0.00 in CLR
13:50 34.4 °F 14.2 °F 30.52 in NW 3.0 mph 6.0 mph 43% 0.00 in CLR
13:59 34.5 °F 12.1 °F 30.52 in NNW 2.0 mph 8.0 mph 39% 0.00 in CLR
14:10 34.3 °F 10.7 °F 30.52 in NNW 1.0 mph 9.0 mph 37% 0.00 in CLR
14:20 34.8 °F 11.2 °F 30.52 in NNW 1.0 mph 4.0 mph 37% 0.00 in CLR
14:29 35.2 °F 10.2 °F 30.53 in NNE 1.0 mph 6.0 mph 35% 0.00 in CLR
14:40 35.6 °F 9.9 °F 30.53 in Calm   5.0 mph 34% 0.00 in CLR
14:49 35.7 °F 9.3 °F 30.52 in NW 1.0 mph 4.0 mph 33% 0.00 in CLR
14:59 35.4 °F 11.1 °F 30.53 in NW 1.0 mph 6.0 mph 36% 0.00 in CLR
15:09 35.7 °F 10.0 °F 30.53 in NNW 1.0 mph 5.0 mph 34% 0.00 in CLR
15:20 35.3 °F 8.3 °F 30.53 in Calm   5.0 mph 32% 0.00 in CLR
15:29 35.1 °F 8.9 °F 30.53 in NW 1.0 mph 2.0 mph 33% 0.00 in CLR
15:39 34.7 °F 9.1 °F 30.53 in Calm   3.0 mph 34% 0.00 in CLR
15:49 34.2 °F 9.4 °F 30.53 in Calm   2.0 mph 35% 0.00 in CLR
15:59 33.9 °F 9.1 °F 30.53 in Calm   1.0 mph 35% 0.00 in CLR
16:09 33.4 °F 8.7 °F 30.53 in Calm   2.0 mph 35% 0.00 in CLR
16:19 33.0 °F 9.5 °F 30.54 in Calm   3.0 mph 37% 0.00 in CLR
16:30 32.6 °F 9.8 °F 30.54 in Calm   1.0 mph 38% 0.00 in CLR
16:39 31.8 °F 11.3 °F 30.54 in Calm     42% 0.00 in CLR
16:49 31.3 °F 9.7 °F 30.54 in Calm     40% 0.00 in CLR
16:59 30.8 °F 10.4 °F 30.55 in Calm     42% 0.00 in CLR
17:09 30.6 °F 9.7 °F 30.55 in Calm     41% 0.00 in CLR
17:20 30.2 °F 9.8 °F 30.55 in Calm     42% 0.00 in CLR
17:29 29.9 °F 11.1 °F 30.55 in Calm     45% 0.00 in CLR
17:40 29.8 °F 10.5 °F 30.55 in Calm     44% 0.00 in CLR
17:49 29.7 °F 9.9 °F 30.55 in Calm   1.0 mph 43% 0.00 in CLR
17:59 29.6 °F 10.3 °F 30.56 in Calm     44% 0.00 in CLR
18:10 29.6 °F 9.3 °F 30.56 in Calm     42% 0.00 in CLR
18:20 29.5 °F 9.2 °F 30.56 in Calm   1.0 mph 42% 0.00 in CLR
18:30 29.3 °F 10.1 °F 30.56 in Calm     44% 0.00 in CLR
18:40 29.2 °F 10.0 °F 30.56 in Calm     44% 0.00 in CLR
18:49 29.2 °F 9.9 °F 30.56 in Calm   1.0 mph 44% 0.00 in CLR
19:09 28.6 °F 10.4 °F 30.56 in Calm     46% 0.00 in CLR
19:20 28.6 °F 9.4 °F 30.56 in Calm     44% 0.00 in CLR
19:29 28.5 °F 9.3 °F 30.57 in Calm     44% 0.00 in CLR
19:39 28.3 °F 9.2 °F 30.57 in Calm     44% 0.00 in CLR
19:49 28.3 °F 9.6 °F 30.56 in Calm     45% 0.00 in CLR
19:59 28.2 °F 10.0 °F 30.56 in Calm   1.0 mph 46% 0.00 in CLR
20:10 28.1 °F 11.4 °F 30.57 in Calm     49% 0.00 in CLR
20:20 28.1 °F 11.4 °F 30.57 in Calm   1.0 mph 49% 0.00 in CLR
20:30 28.1 °F 11.4 °F 30.56 in Calm   1.0 mph 49% 0.00 in CLR
20:40 28.1 °F 11.8 °F 30.56 in Calm     50% 0.00 in CLR
20:49 28.2 °F 11.5 °F 30.55 in Calm     49% 0.00 in CLR
20:59 28.2 °F 11.9 °F 30.55 in Calm     50% 0.00 in CLR
21:09 28.4 °F 13.0 °F 30.55 in Calm     52% 0.00 in CLR
21:19 28.3 °F 12.0 °F 30.55 in Calm     50% 0.00 in CLR
21:29 28.4 °F 12.1 °F 30.55 in Calm     50% 0.00 in CLR
21:40 28.4 °F 13.4 °F 30.55 in Calm     53% 0.00 in CLR
21:49 28.1 °F 12.7 °F 30.55 in Calm     52% 0.00 in CLR
21:59 27.9 °F 13.4 °F 30.54 in Calm     54% 0.00 in CLR
22:10 27.8 °F 12.9 °F 30.54 in Calm     53% 0.00 in CLR
22:19 27.8 °F 13.3 °F 30.54 in Calm   1.0 mph 54% 0.00 in CLR
22:39 27.9 °F 13.4 °F 30.53 in Calm     54% 0.00 in CLR
22:49 28.0 °F 14.3 °F 30.53 in Calm   1.0 mph 56% 0.00 in CLR
22:59 28.1 °F 14.4 °F 30.53 in Calm   1.0 mph 56% 0.00 in CLR
23:29 26.3 °F 15.4 °F 30.55 in Calm     63% 0.00 in CLR
23:39 25.9 °F 15.4 °F 30.54 in Calm     64% 0.00 in CLR
23:49 26.3 °F 15.0 °F 30.54 in Calm     62% 0.00 in CLR
23:59 26.3 °F 14.3 °F 30.54 in Calm     60% 0.00 in CLR
TarryTown NY Weather
Compliments of Weather Underground - 1.75 mb